map of OLV home
OLV - Airport
Location
City:  Olive Branch, Mississippi, United States
ICAO:KOLV
IATA:OLV
FAA LID:OLV

Details
Type:Airport (Airfield)
Use:Public/Civil
Latitude:3458'43"N (34.978750)
Longitude:8947'13"W (-89.786860)
Datum:WGS 1984
Elevation:401 ft (122 m)
Variation:1.48W (WMM2015 magnetic declination)
-0.10 annual change
Runways:1
Longest:6000 × 100 ft (1829 × 30.5 m), paved

Time
Time Zone:UTC-6 (DST-5)
Local Time:

Weather
METAR:KOLV 121250Z 31008KT 10SM OVC047 06/M00 A3013

Related Locations
Nearby:
Farthest:MQZ: 11025 mi / 17742 km
Margaret River [Margaret River Airport], WA, AU

Find:

   beyond  
but within

Other Information
Maps:
NOTAMs:
Links:
Sources:

  
flag of United States
flag of Mississippi
  

Airport Diagram

Airport diagram for OLV

Airport diagram PDF

Sectional Chart

Flight Planning
at skyvector.com

Satellite Image

Google Maps Satellite view

 

Copyright © 2004-2017 Karl L. Swartz. All rights reserved.
The Great Circle Mapper name and logo are trademarks of the Great Circle Mapper.
All other trademarks mentioned herein belong to their respective owners.
Please see credits for attibutions and further copyright information.

  Follow gcmap on Facebook Follow gcmap on Twitter Follow gcmap on Google+ GCmap on LinkedIn

hCard Microformat

Geo Microformat